Time;durP1;ratioP1;P1;durP2;ratioP2;P2;SDS_P1;SDS_P2;PMS_P1;PMS_P2;Temp;Humidity;BMP_temperature;BMP_pressure;BME280_temperature;BME280_humidity;BME280_pressure;Samples;Min_cycle;Max_cycle;Signal;HPM_P1;HPM_P2
2022/12/31 19:31:11;;;;;;;10.50;5.50;;;;;;;0.78;94.26;100446.92;30851;1337;3015011;-63
2022/12/31 19:33:42;;;;;;;13.40;5.70;;;;;;;1.41;92.65;100455.35;24413;1336;3026533;-63
2022/12/31 19:36:18;;;;;;;16.90;7.00;;;;;;;1.71;90.12;100456.68;24510;1330;3026345;-61
2022/12/31 19:38:47;;;;;;;16.30;7.50;;;;;;;1.38;89.86;100460.20;24474;1346;3048948;-62
2022/12/31 19:41:19;;;;;;;18.60;8.40;;;;;;;1.35;89.98;100462.81;24412;1335;3028226;-61
2022/12/31 19:43:49;;;;;;;14.30;7.90;;;;;;;1.32;90.17;100468.20;23757;1330;4441693;-63
2022/12/31 19:46:17;;;;;;;14.40;9.00;;;;;;;0.93;91.39;100470.83;24435;1327;3028307;-62
2022/12/31 19:48:47;;;;;;;12.70;7.90;;;;;;;0.72;92.74;100472.83;24538;1333;3068771;-59
2022/12/31 19:51:18;;;;;;;12.40;7.10;;;;;;;0.62;93.61;100466.82;24533;1327;3026540;-63
2022/12/31 19:53:47;;;;;;;8.20;5.30;;;;;;;0.45;94.15;100469.48;24519;1334;3049737;-61
2022/12/31 19:56:18;;;;;;;12.60;6.50;;;;;;;0.94;94.48;100468.05;24513;1333;3028271;-60
2022/12/31 19:58:47;;;;;;;14.60;8.50;;;;;;;1.51;91.94;100462.70;24529;1334;3029064;-60
2022/12/31 20:01:18;;;;;;;13.60;7.70;;;;;;;1.32;90.80;100466.98;24441;1327;3026284;-62
2022/12/31 20:03:48;;;;;;;19.40;10.10;;;;;;;1.26;91.33;100465.82;24479;1333;3068871;-62
2022/12/31 20:06:17;;;;;;;18.10;9.30;;;;;;;1.07;91.65;100463.68;24554;1337;3027194;-60
2022/12/31 20:08:46;;;;;;;21.40;11.70;;;;;;;0.91;91.96;100455.84;24500;1334;3025777;-63
2022/12/31 20:11:17;;;;;;;15.90;9.10;;;;;;;0.69;92.80;100456.96;24494;1333;3068595;-62
2022/12/31 20:13:47;;;;;;;13.10;5.30;;;;;;;0.79;93.41;100456.76;24532;1334;3028731;-62
2022/12/31 20:16:17;;;;;;;12.50;6.80;;;;;;;1.32;92.87;100450.94;24510;1333;3028684;-61
2022/12/31 20:18:47;;;;;;;14.10;7.90;;;;;;;1.51;90.33;100456.15;24535;1333;3026937;-63
2022/12/31 20:21:21;;;;;;;18.10;8.90;;;;;;;1.49;90.06;100445.97;24497;1327;3026341;-63
2022/12/31 20:23:51;;;;;;;14.70;8.50;;;;;;;1.31;90.34;100449.04;24533;1332;3056873;-63
2022/12/31 20:26:21;;;;;;;14.10;8.50;;;;;;;1.22;90.45;100447.88;24509;1334;3027702;-59
2022/12/31 20:28:51;;;;;;;14.90;8.80;;;;;;;0.86;91.29;100448.79;25421;1332;3027057;-61
2022/12/31 20:31:22;;;;;;;17.50;9.20;;;;;;;0.73;92.62;100449.18;25425;1326;3025861;-62
2022/12/31 20:33:53;;;;;;;11.90;5.80;;;;;;;0.56;94.23;100445.30;25423;1333;3028332;-61
2022/12/31 20:36:22;;;;;;;9.90;5.90;;;;;;;0.82;93.55;100441.56;25431;1333;3026391;-61
2022/12/31 20:38:51;;;;;;;15.40;7.80;;;;;;;1.15;92.21;100443.95;25429;1325;3026489;-61
2022/12/31 20:41:20;;;;;;;12.90;7.50;;;;;;;1.25;91.03;100442.86;25425;1334;3052001;-62
2022/12/31 20:43:49;;;;;;;14.60;8.50;;;;;;;1.30;90.81;100447.99;25429;1326;3025965;-63
2022/12/31 20:46:23;;;;;;;18.40;9.30;;;;;;;1.03;91.78;100452.14;25420;1331;3025109;-62
2022/12/31 20:48:54;;;;;;;14.60;8.30;;;;;;;0.79;93.18;100467.97;25446;1334;3051822;-62
2022/12/31 20:51:23;;;;;;;15.20;8.60;;;;;;;0.63;94.54;100470.11;25451;1330;3025751;-61
2022/12/31 20:53:54;;;;;;;9.20;5.50;;;;;;;0.44;95.72;100469.65;25418;1334;3025917;-62
2022/12/31 20:56:25;;;;;;;9.90;6.00;;;;;;;0.95;95.99;100459.10;25432;1334;3026289;-62
2022/12/31 20:58:54;;;;;;;14.00;7.60;;;;;;;1.38;93.90;100463.33;25428;1334;3026423;-62
2022/12/31 21:03:47;;;;;;;14.00;8.40;;;;;;;1.44;92.15;100452.39;30798;1344;3018793;-62
2022/12/31 21:06:17;;;;;;;16.10;8.90;;;;;;;1.41;92.38;100449.83;24444;1338;3028724;-61
2022/12/31 21:08:46;;;;;;;14.50;8.60;;;;;;;1.15;92.13;100446.73;24453;1330;3028766;-62
2022/12/31 21:14:03;;;;;;;7.60;4.70;;;;;;;0.84;94.53;100447.06;24461;1334;3069279;-61
2022/12/31 21:16:32;;;;;;;8.90;4.80;;;;;;;1.30;93.70;100442.82;23783;1331;4403745;-63
2022/12/31 21:19:01;;;;;;;15.20;8.60;;;;;;;1.74;91.44;100441.27;24536;1330;3027900;-63
2022/12/31 21:21:31;;;;;;;14.30;7.80;;;;;;;1.58;90.40;100448.15;24528;1331;3068521;-62
2022/12/31 21:24:00;;;;;;;12.30;7.20;;;;;;;1.46;91.39;100451.87;24535;1323;3028805;-63
2022/12/31 21:26:29;;;;;;;12.80;7.30;;;;;;;1.27;91.79;100453.04;24507;1331;3048691;-61
2022/12/31 21:28:58;;;;;;;13.80;8.40;;;;;;;1.00;92.70;100442.67;24485;1323;3028193;-60
2022/12/31 21:31:28;;;;;;;15.20;7.60;;;;;;;0.85;93.71;100445.52;24501;1330;3026126;-62
2022/12/31 21:33:56;;;;;;;7.00;4.90;;;;;;;0.82;94.88;100438.45;24609;1331;3026155;-62
2022/12/31 21:36:26;;;;;;;8.00;4.90;;;;;;;1.41;93.88;100423.24;24482;1331;3068570;-61
2022/12/31 21:38:54;;;;;;;11.60;6.90;;;;;;;1.88;91.23;100413.86;24539;1324;3028567;-64
2022/12/31 21:44:11;;;;;;;12.60;8.30;;;;;;;1.56;90.06;100392.38;24495;1330;3069192;-63
2022/12/31 21:46:40;;;;;;;13.90;8.30;;;;;;;1.26;91.20;100393.15;24493;1326;3028281;-62
2022/12/31 21:49:09;;;;;;;16.40;8.30;;;;;;;1.21;91.90;100390.08;24567;1338;3048546;-62
2022/12/31 21:57:15;;;;;;;8.30;4.90;;;;;;;1.62;93.10;100399.23;24501;1332;3049637;-61
2022/12/31 22:05:21;;;;;;;12.20;7.10;;;;;;;1.67;90.25;100416.29;24528;1331;3051899;-62
2022/12/31 22:07:50;;;;;;;11.20;6.40;;;;;;;1.17;92.05;100428.07;24524;1331;3028148;-60
2022/12/31 22:10:22;;;;;;;12.20;7.20;;;;;;;1.18;92.83;100419.60;24467;1324;3028801;-58
2022/12/31 22:12:51;;;;;;;9.60;6.50;;;;;;;1.14;93.22;100422.05;24506;1324;3027439;-61
2022/12/31 22:15:20;;;;;;;8.70;4.60;;;;;;;1.28;93.18;100419.54;24489;1330;3067991;-63
2022/12/31 22:17:49;;;;;;;6.90;4.80;;;;;;;1.52;91.96;100419.87;24535;1323;3028339;-62
2022/12/31 22:20:18;;;;;;;8.70;5.30;;;;;;;2.08;90.19;100411.74;24498;1331;3048680;-61
2022/12/31 22:22:49;;;;;;;11.50;6.50;;;;;;;1.95;89.46;100413.09;24544;1330;3029052;-61
2022/12/31 22:25:18;;;;;;;10.20;6.60;;;;;;;1.66;89.62;100418.02;24490;1324;3026001;-62
2022/12/31 22:27:46;;;;;;;10.30;6.40;;;;;;;1.50;91.13;100415.92;24510;1330;3048916;-61
2022/12/31 22:30:18;;;;;;;13.10;8.00;;;;;;;1.36;91.59;100413.79;24513;1341;3026987;-60
2022/12/31 22:32:48;;;;;;;12.40;7.10;;;;;;;1.20;92.38;100410.80;24559;1325;3026607;-62
2022/12/31 22:35:17;;;;;;;8.90;5.30;;;;;;;1.22;92.62;100401.46;24516;1340;3048597;-62
2022/12/31 22:37:49;;;;;;;8.10;5.40;;;;;;;1.45;93.32;100393.16;24532;1323;3026165;-62
2022/12/31 22:40:18;;;;;;;9.50;6.30;;;;;;;1.81;91.77;100392.14;24480;1324;3029027;-61
2022/12/31 22:42:47;;;;;;;11.30;6.70;;;;;;;1.88;90.33;100402.45;24532;1331;3049147;-64
2022/12/31 22:45:17;;;;;;;13.10;6.60;;;;;;;1.60;91.09;100403.05;24502;1329;3028626;-60
2022/12/31 22:47:46;;;;;;;11.00;7.00;;;;;;;1.44;92.21;100398.01;24536;1324;3029433;-62
2022/12/31 22:50:15;;;;;;;10.20;6.90;;;;;;;1.41;93.01;100403.91;24524;1331;3049393;-61
2022/12/31 22:52:44;;;;;;;10.70;6.30;;;;;;;1.16;93.58;100400.30;24493;1316;3028277;-62
2022/12/31 22:55:13;;;;;;;14.10;5.20;;;;;;;1.17;94.06;100400.80;24524;1341;3052112;-60
2022/12/31 22:57:42;;;;;;;6.90;4.40;;;;;;;1.53;93.38;100394.64;24505;1323;3027139;-61
2022/12/31 23:00:12;;;;;;;9.50;6.00;;;;;;;2.29;90.12;100375.04;24511;1330;3049966;-60
2022/12/31 23:02:42;;;;;;;9.10;5.70;;;;;;;1.98;89.62;100382.12;24529;1323;3028346;-62
2022/12/31 23:05:11;;;;;;;12.50;7.50;;;;;;;1.78;90.38;100378.52;24548;1331;3026174;-63
2022/12/31 23:07:40;;;;;;;14.60;7.50;;;;;;;1.46;91.42;100384.18;24476;1330;3028665;-61
2022/12/31 23:12:57;;;;;;;10.20;6.20;;;;;;;1.05;93.39;100399.50;24526;1332;3049042;-61
2022/12/31 23:23:52;;;;;;;10.20;6.40;;;;;;;1.95;89.55;100376.80;24467;1335;3068871;-59
2022/12/31 23:26:21;;;;;;;9.30;6.10;;;;;;;1.73;90.32;100380.14;24537;1341;3025970;-61
2022/12/31 23:28:50;;;;;;;11.90;6.90;;;;;;;1.63;91.17;100377.30;24490;1316;3028168;-62
2022/12/31 23:31:19;;;;;;;12.10;7.20;;;;;;;1.45;91.71;100377.63;24491;1330;3068212;-61
2022/12/31 23:33:48;;;;;;;11.70;6.40;;;;;;;1.20;92.79;100388.02;24491;1324;3027605;-62
2022/12/31 23:36:17;;;;;;;8.20;4.70;;;;;;;1.22;93.48;100388.16;24539;1331;3049261;-59
2022/12/31 23:38:46;;;;;;;7.60;5.00;;;;;;;1.57;93.10;100381.31;24472;1324;3027865;-58
2022/12/31 23:41:18;;;;;;;10.70;6.70;;;;;;;2.15;90.54;100374.84;24509;1340;3053225;-62
2022/12/31 23:43:47;;;;;;;14.30;8.10;;;;;;;1.78;90.68;100373.51;24534;1333;3026281;-61
2022/12/31 23:46:15;;;;;;;12.00;7.00;;;;;;;1.57;91.91;100371.82;24491;1331;3025976;-61
2022/12/31 23:48:44;;;;;;;11.60;6.90;;;;;;;1.61;92.30;100375.59;24512;1331;3052465;-61
2022/12/31 23:51:13;;;;;;;9.20;5.70;;;;;;;1.64;92.14;100362.10;24547;1322;3028146;-64
2022/12/31 23:53:42;;;;;;;11.80;7.40;;;;;;;1.40;92.66;100363.51;24510;1330;3050815;-61
2022/12/31 23:56:14;;;;;;;8.70;5.50;;;;;;;1.22;94.02;100351.06;24577;1324;3028518;-60
2022/12/31 23:58:43;;;;;;;10.10;5.00;;;;;;;1.63;93.32;100347.93;24574;1321;3053132;-61
